Time;durP1;ratioP1;P1;durP2;ratioP2;P2;SDS_P1;SDS_P2;PMS_P1;PMS_P2;Temp;Humidity;BMP_temperature;BMP_pressure;BME280_temperature;BME280_humidity;BME280_pressure;Samples;Min_cycle;Max_cycle;Signal;HPM_P1;HPM_P2
2024/03/15 00:00:14;;;;;;;14.73;11.60;;;;;;;;;;4929396;29;20287;-89
2024/03/15 00:02:42;;;;;;;14.40;11.10;;;;;;;;;;4902280;29;20234;-87
2024/03/15 00:05:09;;;;;;;13.03;11.50;;;;;;;;;;4923171;28;20231;-87
2024/03/15 00:07:35;;;;;;;13.40;12.00;;;;;;;;;;4916835;29;20715;-88
2024/03/15 00:10:01;;;;;;;13.70;11.67;;;;;;;;;;4904209;29;20219;-88
2024/03/15 00:12:26;;;;;;;12.73;11.43;;;;;;;;;;4934449;28;20243;-89
2024/03/15 00:14:52;;;;;;;12.57;11.20;;;;;;;;;;4925439;29;20293;-87
2024/03/15 00:17:20;;;;;;;12.23;10.93;;;;;;;;;;4918896;29;20228;-88
2024/03/15 00:19:45;;;;;;;14.03;12.63;;;;;;;;;;4921712;29;20307;-88
2024/03/15 00:22:13;;;;;;;13.03;11.73;;;;;;;;;;4934108;28;20226;-88
2024/03/15 00:24:39;;;;;;;12.43;11.20;;;;;;;;;;4917871;29;20228;-88
2024/03/15 00:27:05;;;;;;;13.13;11.27;;;;;;;;;;4910111;28;20918;-88
2024/03/15 00:29:31;;;;;;;12.97;11.67;;;;;;;;;;4923095;29;20223;-88
2024/03/15 00:31:56;;;;;;;12.73;11.43;;;;;;;;;;4903628;29;20248;-87
2024/03/15 00:34:23;;;;;;;13.13;11.80;;;;;;;;;;4911715;28;20219;-88
2024/03/15 00:36:48;;;;;;;14.27;12.73;;;;;;;;;;4932469;28;20239;-88
2024/03/15 00:39:14;;;;;;;14.97;12.67;;;;;;;;;;4950456;28;20216;-88
2024/03/15 00:41:42;;;;;;;12.87;11.57;;;;;;;;;;4908305;29;20232;-89
2024/03/15 00:44:07;;;;;;;13.87;12.03;;;;;;;;;;4922948;29;20288;-88
2024/03/15 00:46:33;;;;;;;14.13;12.63;;;;;;;;;;4927103;29;20239;-88
2024/03/15 00:48:58;;;;;;;14.63;12.13;;;;;;;;;;4906047;29;20231;-88
2024/03/15 00:51:25;;;;;;;14.33;12.33;;;;;;;;;;4951701;28;20224;-88
2024/03/15 00:53:51;;;;;;;17.93;12.33;;;;;;;;;;4910896;29;20234;-89
2024/03/15 00:56:17;;;;;;;13.27;11.87;;;;;;;;;;4933667;28;20216;-88
2024/03/15 00:58:42;;;;;;;14.07;12.67;;;;;;;;;;4915007;29;20246;-91
2024/03/15 01:01:10;;;;;;;13.33;12.03;;;;;;;;;;4923766;28;20219;-88
2024/03/15 01:03:36;;;;;;;13.27;11.73;;;;;;;;;;4915197;29;20716;-88
2024/03/15 01:06:04;;;;;;;14.30;12.40;;;;;;;;;;4924450;29;20228;-88
2024/03/15 01:08:29;;;;;;;14.40;12.03;;;;;;;;;;4932991;28;20251;-87
2024/03/15 01:10:55;;;;;;;13.97;12.50;;;;;;;;;;4903833;29;20228;-88
2024/03/15 01:13:21;;;;;;;13.07;11.80;;;;;;;;;;4911707;29;20955;-88
2024/03/15 01:15:46;;;;;;;13.63;12.23;;;;;;;;;;4917351;29;20232;-89
2024/03/15 01:18:12;;;;;;;13.37;11.97;;;;;;;;;;4900596;28;20227;-88
2024/03/15 01:20:39;;;;;;;13.37;12.17;;;;;;;;;;4909782;29;20227;-88
2024/03/15 01:23:05;;;;;;;14.87;12.80;;;;;;;;;;4896782;28;20223;-88
2024/03/15 01:25:30;;;;;;;14.50;12.80;;;;;;;;;;4926368;29;20233;-90
2024/03/15 01:27:59;;;;;;;13.40;12.10;;;;;;;;;;4933290;29;20230;-88
2024/03/15 01:30:24;;;;;;;13.53;12.03;;;;;;;;;;4896225;28;20222;-88
2024/03/15 01:32:50;;;;;;;13.53;12.13;;;;;;;;;;4932967;28;20231;-88
2024/03/15 01:35:19;;;;;;;13.43;12.03;;;;;;;;;;4903704;28;20219;-89
2024/03/15 01:37:47;;;;;;;13.03;11.73;;;;;;;;;;4926437;29;20322;-88
2024/03/15 01:40:13;;;;;;;13.50;12.10;;;;;;;;;;4918479;28;20275;-88
2024/03/15 01:42:38;;;;;;;13.17;11.97;;;;;;;;;;4948958;28;20228;-88
2024/03/15 01:45:08;;;;;;;13.83;12.50;;;;;;;;;;4956852;28;20251;-89
2024/03/15 01:47:33;;;;;;;13.57;12.17;;;;;;;;;;4934570;28;20215;-88
2024/03/15 01:50:01;;;;;;;13.23;11.97;;;;;;;;;;4929257;29;20771;-87
2024/03/15 01:52:28;;;;;;;12.70;11.57;;;;;;;;;;4920257;28;20615;-88
2024/03/15 01:54:54;;;;;;;12.30;11.13;;;;;;;;;;4900809;29;20218;-88
2024/03/15 01:57:19;;;;;;;13.00;11.70;;;;;;;;;;4921576;29;20627;-88
2024/03/15 01:59:45;;;;;;;12.87;11.53;;;;;;;;;;4961079;28;20234;-88
2024/03/15 02:02:13;;;;;;;13.70;12.30;;;;;;;;;;4911757;29;20224;-88
2024/03/15 02:04:46;;;;;;;12.77;11.47;;;;;;;;;;4911260;28;20233;-88
2024/03/15 02:07:12;;;;;;;12.73;11.33;;;;;;;;;;4910414;28;20219;-88
2024/03/15 02:09:38;;;;;;;12.93;11.33;;;;;;;;;;4927630;29;20570;-88
2024/03/15 02:12:04;;;;;;;11.83;10.70;;;;;;;;;;4917220;29;20236;-90
2024/03/15 02:14:30;;;;;;;13.07;11.77;;;;;;;;;;4916894;29;20673;-88
2024/03/15 02:16:56;;;;;;;13.87;12.37;;;;;;;;;;4924606;28;20238;-87
2024/03/15 02:19:22;;;;;;;14.87;12.67;;;;;;;;;;4905661;28;20219;-88
2024/03/15 02:21:47;;;;;;;15.50;13.20;;;;;;;;;;4900739;29;20289;-87
2024/03/15 02:24:13;;;;;;;14.40;12.50;;;;;;;;;;4939865;28;20215;-87
2024/03/15 02:26:42;;;;;;;15.87;14.17;;;;;;;;;;4913496;29;20231;-87
2024/03/15 02:29:12;;;;;;;14.30;12.87;;;;;;;;;;4913816;28;20227;-87
2024/03/15 02:31:38;;;;;;;14.90;13.40;;;;;;;;;;4924706;29;20262;-87
2024/03/15 02:34:03;;;;;;;14.80;13.30;;;;;;;;;;4935235;28;20733;-88
2024/03/15 02:36:30;;;;;;;15.97;14.27;;;;;;;;;;4899190;29;20681;-87
2024/03/15 02:38:56;;;;;;;16.40;14.70;;;;;;;;;;4944302;28;20363;-88
2024/03/15 02:41:21;;;;;;;15.97;14.33;;;;;;;;;;4932221;29;20275;-87
2024/03/15 02:43:47;;;;;;;16.37;14.73;;;;;;;;;;4912405;29;20235;-87
2024/03/15 02:46:16;;;;;;;16.53;14.73;;;;;;;;;;4901666;28;20734;-87
2024/03/15 02:48:43;;;;;;;16.17;14.50;;;;;;;;;;4910099;29;20237;-87
2024/03/15 02:51:09;;;;;;;16.40;14.33;;;;;;;;;;4921718;28;20642;-87
2024/03/15 02:53:34;;;;;;;15.60;14.10;;;;;;;;;;4903303;29;20235;-87
2024/03/15 02:56:00;;;;;;;16.23;14.53;;;;;;;;;;4957739;28;20231;-87
2024/03/15 02:58:26;;;;;;;15.63;14.03;;;;;;;;;;4911429;28;20314;-88
2024/03/15 03:00:54;;;;;;;15.27;13.77;;;;;;;;;;4911621;29;20233;-88
2024/03/15 03:03:20;;;;;;;15.40;13.47;;;;;;;;;;4913249;28;20333;-87
2024/03/15 03:05:46;;;;;;;16.17;14.23;;;;;;;;;;4905749;29;20224;-88
2024/03/15 03:08:12;;;;;;;15.63;14.03;;;;;;;;;;4913847;28;20742;-90
2024/03/15 03:10:38;;;;;;;15.73;14.13;;;;;;;;;;4921462;29;20277;-87
2024/03/15 03:13:03;;;;;;;15.40;13.80;;;;;;;;;;4905781;28;20232;-87
2024/03/15 03:15:29;;;;;;;15.77;14.23;;;;;;;;;;4917728;29;20723;-88
2024/03/15 03:17:56;;;;;;;16.17;13.90;;;;;;;;;;4917001;29;20306;-90
2024/03/15 03:20:23;;;;;;;15.67;13.57;;;;;;;;;;4914608;29;20805;-88
2024/03/15 03:22:52;;;;;;;15.87;14.27;;;;;;;;;;4912669;29;20369;-88
2024/03/15 03:25:21;;;;;;;16.13;14.50;;;;;;;;;;4929995;28;20291;-87
2024/03/15 03:27:47;;;;;;;15.60;14.10;;;;;;;;;;4944873;28;20263;-87
2024/03/15 03:30:13;;;;;;;15.87;14.30;;;;;;;;;;4908178;28;20216;-88
2024/03/15 03:32:41;;;;;;;16.90;15.20;;;;;;;;;;4910776;29;20242;-87
2024/03/15 03:35:10;;;;;;;17.47;15.60;;;;;;;;;;4935238;28;20250;-87
2024/03/15 03:37:37;;;;;;;17.23;15.43;;;;;;;;;;4916411;29;20250;-87
2024/03/15 03:40:14;;;;;;;16.93;14.43;;;;;;;;;;4944792;28;20290;-87
2024/03/15 03:42:43;;;;;;;17.17;15.37;;;;;;;;;;4907263;29;20701;-88
2024/03/15 03:45:17;;;;;;;17.27;15.47;;;;;;;;;;4951801;28;20296;-87
2024/03/15 03:47:48;;;;;;;18.20;16.30;;;;;;;;;;4917428;29;20231;-87
2024/03/15 03:50:13;;;;;;;17.30;15.50;;;;;;;;;;4938486;29;20220;-87
2024/03/15 03:52:39;;;;;;;19.23;17.23;;;;;;;;;;4896532;29;20533;-87
2024/03/15 03:55:08;;;;;;;20.27;16.97;;;;;;;;;;4906402;28;20231;-87
2024/03/15 04:01:27;;;;;;;19.47;17.03;;;;;;;;;;4986080;28;20229;-87
2024/03/15 04:03:57;;;;;;;21.13;17.53;;;;;;;;;;4917010;29;20227;-87
2024/03/15 04:06:27;;;;;;;19.03;17.10;;;;;;;;;;4931669;28;20232;-87
2024/03/15 04:08:53;;;;;;;18.90;16.93;;;;;;;;;;4929269;28;20250;-89
2024/03/15 04:11:19;;;;;;;18.37;16.57;;;;;;;;;;4911183;28;20700;-87
2024/03/15 04:13:44;;;;;;;19.10;17.23;;;;;;;;;;4920797;29;20227;-88
2024/03/15 04:16:10;;;;;;;19.17;17.17;;;;;;;;;;4935302;28;20234;-88
2024/03/15 04:18:36;;;;;;;18.60;16.70;;;;;;;;;;4904275;29;20231;-89
2024/03/15 04:21:05;;;;;;;18.60;16.60;;;;;;;;;;4919346;29;20232;-89
2024/03/15 04:23:33;;;;;;;18.60;16.57;;;;;;;;;;4889277;29;20319;-88
2024/03/15 04:26:02;;;;;;;19.33;17.30;;;;;;;;;;4884537;29;20223;-88
2024/03/15 04:28:28;;;;;;;19.93;17.93;;;;;;;;;;4901758;29;20230;-88
2024/03/15 04:31:32;;;;;;;19.40;17.33;;;;;;;;;;4924525;29;20289;-89
2024/03/15 04:34:06;;;;;;;19.10;17.10;;;;;;;;;;4923758;28;20600;-88
2024/03/15 04:36:41;;;;;;;21.33;18.87;;;;;;;;;;4906453;29;20235;-89
2024/03/15 04:39:23;;;;;;;20.70;18.30;;;;;;;;;;4939287;28;20321;-89
2024/03/15 04:41:49;;;;;;;20.20;18.07;;;;;;;;;;4934865;28;20325;-87
2024/03/15 04:44:15;;;;;;;20.00;17.93;;;;;;;;;;4919971;28;20446;-88
2024/03/15 04:46:49;;;;;;;20.27;18.17;;;;;;;;;;4889598;29;20227;-89
2024/03/15 04:49:17;;;;;;;20.83;17.83;;;;;;;;;;4889694;28;20709;-89
2024/03/15 04:51:45;;;;;;;19.87;17.87;;;;;;;;;;4905407;29;20231;-88
2024/03/15 04:54:11;;;;;;;20.07;17.83;;;;;;;;;;4905000;28;20604;-79
2024/03/15 04:56:38;;;;;;;20.17;17.77;;;;;;;;;;4946383;28;20242;-78
2024/03/15 04:59:07;;;;;;;19.97;17.90;;;;;;;;;;4940020;28;20612;-78
2024/03/15 05:01:34;;;;;;;20.97;18.07;;;;;;;;;;4937063;28;20219;-78
2024/03/15 05:04:03;;;;;;;20.43;18.27;;;;;;;;;;4927758;29;20312;-78
2024/03/15 05:06:30;;;;;;;21.40;19.20;;;;;;;;;;4948329;28;20215;-78
2024/03/15 05:08:56;;;;;;;22.80;19.23;;;;;;;;;;4943776;28;20313;-78
2024/03/15 05:11:24;;;;;;;25.27;19.70;;;;;;;;;;4926510;28;20219;-78
2024/03/15 05:13:52;;;;;;;21.60;19.30;;;;;;;;;;4917927;29;20243;-79
2024/03/15 05:16:22;;;;;;;21.90;19.07;;;;;;;;;;4911025;28;20227;-78
2024/03/15 05:18:48;;;;;;;24.03;19.53;;;;;;;;;;4930634;29;20322;-78
2024/03/15 05:21:13;;;;;;;21.33;19.20;;;;;;;;;;4948593;28;20704;-78
2024/03/15 05:23:39;;;;;;;23.00;19.10;;;;;;;;;;4949692;28;20293;-79
2024/03/15 05:26:07;;;;;;;23.97;20.27;;;;;;;;;;4931722;28;20225;-79
2024/03/15 05:28:33;;;;;;;21.17;18.50;;;;;;;;;;4922279;29;20231;-79
2024/03/15 05:30:59;;;;;;;24.83;20.13;;;;;;;;;;4912457;29;20279;-79
2024/03/15 05:33:28;;;;;;;25.07;20.57;;;;;;;;;;4935164;28;20783;-78
2024/03/15 05:35:56;;;;;;;22.10;19.27;;;;;;;;;;4912840;28;20713;-78
2024/03/15 05:38:25;;;;;;;23.73;19.87;;;;;;;;;;4912100;29;20244;-78
2024/03/15 05:40:51;;;;;;;22.30;19.90;;;;;;;;;;4937656;28;20224;-78
2024/03/15 05:43:17;;;;;;;23.50;20.30;;;;;;;;;;4943125;28;20677;-78
2024/03/15 05:45:48;;;;;;;24.33;20.83;;;;;;;;;;4925969;29;20274;-79
2024/03/15 05:48:18;;;;;;;22.97;20.47;;;;;;;;;;4897510;28;20224;-80
2024/03/15 05:50:49;;;;;;;22.03;19.57;;;;;;;;;;4928086;28;20702;-77
2024/03/15 05:53:17;;;;;;;22.17;19.20;;;;;;;;;;4900635;28;20231;-79
2024/03/15 05:55:43;;;;;;;22.73;20.00;;;;;;;;;;4915111;29;20236;-78
2024/03/15 05:58:11;;;;;;;22.47;20.20;;;;;;;;;;4953436;28;20338;-78
2024/03/15 06:00:36;;;;;;;21.30;19.10;;;;;;;;;;4919610;29;20232;-77
2024/03/15 06:03:05;;;;;;;20.40;18.17;;;;;;;;;;4906367;29;20318;-79
2024/03/15 06:05:35;;;;;;;20.10;18.00;;;;;;;;;;4922249;28;20227;-79
2024/03/15 06:08:03;;;;;;;20.50;18.37;;;;;;;;;;4909335;29;20612;-78
2024/03/15 06:10:29;;;;;;;20.30;18.13;;;;;;;;;;4928320;28;20226;-80
2024/03/15 06:12:57;;;;;;;21.07;18.80;;;;;;;;;;4929019;29;20318;-79
2024/03/15 06:15:25;;;;;;;20.10;18.10;;;;;;;;;;4922569;28;20223;-78
2024/03/15 06:17:51;;;;;;;20.17;18.27;;;;;;;;;;4936128;28;20247;-79
2024/03/15 06:20:22;;;;;;;19.87;17.77;;;;;;;;;;4909154;29;20592;-79
2024/03/15 06:22:47;;;;;;;19.50;17.50;;;;;;;;;;4897012;29;20231;-79
2024/03/15 06:25:13;;;;;;;18.30;16.50;;;;;;;;;;4923824;28;20605;-79
2024/03/15 06:27:44;;;;;;;17.50;15.80;;;;;;;;;;4903522;29;20647;-78
2024/03/15 06:30:14;;;;;;;18.13;16.23;;;;;;;;;;4937960;28;20230;-78
2024/03/15 06:32:39;;;;;;;17.83;16.17;;;;;;;;;;4895200;29;20260;-78
2024/03/15 06:35:27;;;;;;;17.87;16.07;;;;;;;;;;4911734;29;20636;-79
2024/03/15 06:38:07;;;;;;;16.20;14.60;;;;;;;;;;4925354;29;20230;-78
2024/03/15 06:41:37;;;;;;;16.73;15.03;;;;;;;;;;4931531;28;20926;-78
2024/03/15 06:43:42;;;;;;;16.27;14.73;;;;;;;;;;4934366;28;20238;-79
2024/03/15 06:46:08;;;;;;;17.03;15.30;;;;;;;;;;4929541;28;20322;-79
2024/03/15 06:48:44;;;;;;;17.10;15.37;;;;;;;;;;4939728;28;20326;-78
2024/03/15 06:54:01;;;;;;;16.60;14.70;;;;;;;;;;4931160;28;20259;-77
2024/03/15 06:56:27;;;;;;;16.53;14.57;;;;;;;;;;4947393;28;20222;-78
2024/03/15 06:58:54;;;;;;;16.60;14.90;;;;;;;;;;4939085;28;20224;-78
2024/03/15 07:01:20;;;;;;;15.93;14.43;;;;;;;;;;4944326;28;20235;-78
2024/03/15 07:03:45;;;;;;;15.30;13.70;;;;;;;;;;4924194;28;20244;-79
2024/03/15 07:06:14;;;;;;;15.47;13.83;;;;;;;;;;4906849;29;20231;-79
2024/03/15 07:08:49;;;;;;;15.70;14.00;;;;;;;;;;4939674;28;20223;-79
2024/03/15 07:11:16;;;;;;;15.20;13.60;;;;;;;;;;4929816;28;20231;-78
2024/03/15 07:13:41;;;;;;;16.00;14.27;;;;;;;;;;4925042;29;20235;-79
2024/03/15 07:16:09;;;;;;;15.30;13.63;;;;;;;;;;4938718;28;20824;-78
2024/03/15 07:18:37;;;;;;;14.17;12.77;;;;;;;;;;4933590;28;20239;-78
2024/03/15 07:21:02;;;;;;;13.57;12.33;;;;;;;;;;4943620;28;20250;-78
2024/03/15 07:23:30;;;;;;;14.03;11.43;;;;;;;;;;4917132;29;20942;-77
2024/03/15 07:25:55;;;;;;;12.73;11.47;;;;;;;;;;4937707;28;20308;-78
2024/03/15 07:28:23;;;;;;;11.67;10.50;;;;;;;;;;4944658;28;20242;-79
2024/03/15 07:30:54;;;;;;;11.13;10.13;;;;;;;;;;4939195;28;20700;-77
2024/03/15 07:33:23;;;;;;;10.77;9.77;;;;;;;;;;4911916;29;20227;-78
2024/03/15 07:35:56;;;;;;;9.97;9.07;;;;;;;;;;4925876;29;20236;-78
2024/03/15 07:38:22;;;;;;;11.75;9.50;;;;;;;;;;4916550;28;20250;-79
2024/03/15 07:40:47;;;;;;;10.10;9.10;;;;;;;;;;4952846;28;20238;-79
2024/03/15 07:43:13;;;;;;;9.68;8.68;;;;;;;;;;4912140;28;20220;-78
2024/03/15 07:45:38;;;;;;;9.17;8.27;;;;;;;;;;4931816;28;20254;-78
2024/03/15 07:48:05;;;;;;;9.25;8.43;;;;;;;;;;4941033;28;20606;-79
2024/03/15 07:50:30;;;;;;;8.97;8.00;;;;;;;;;;4941138;28;20227;-78
2024/03/15 07:52:58;;;;;;;10.13;9.03;;;;;;;;;;4924855;29;20242;-79
2024/03/15 07:55:27;;;;;;;10.30;9.03;;;;;;;;;;4917292;28;20274;-79
2024/03/15 07:57:57;;;;;;;9.60;8.70;;;;;;;;;;4941355;29;20242;-77
2024/03/15 08:00:23;;;;;;;8.27;7.47;;;;;;;;;;4925169;28;20231;-81
2024/03/15 08:02:51;;;;;;;9.57;8.67;;;;;;;;;;4936090;28;20234;-79
2024/03/15 08:05:17;;;;;;;9.30;8.40;;;;;;;;;;4924764;28;20303;-80
2024/03/15 08:07:45;;;;;;;9.77;8.77;;;;;;;;;;4935143;28;20294;-79
2024/03/15 08:10:17;;;;;;;9.40;8.50;;;;;;;;;;4946649;28;20290;-78
2024/03/15 08:12:45;;;;;;;9.40;8.60;;;;;;;;;;4948988;28;20893;-77
2024/03/15 08:15:10;;;;;;;9.57;8.10;;;;;;;;;;4932231;28;20230;-78
2024/03/15 08:17:36;;;;;;;8.77;7.97;;;;;;;;;;4919133;29;20238;-78
2024/03/15 08:20:03;;;;;;;9.07;8.23;;;;;;;;;;4912113;28;20771;-80
2024/03/15 08:22:29;;;;;;;9.53;8.53;;;;;;;;;;4899428;29;20227;-79
2024/03/15 08:24:54;;;;;;;8.65;7.72;;;;;;;;;;4923716;28;20275;-78
2024/03/15 08:27:22;;;;;;;9.00;8.10;;;;;;;;;;4921417;28;20243;-78
2024/03/15 08:29:50;;;;;;;8.50;7.70;;;;;;;;;;4926713;29;20359;-78
2024/03/15 08:32:18;;;;;;;8.35;7.50;;;;;;;;;;4930294;28;20255;-79
2024/03/15 08:34:44;;;;;;;7.95;7.20;;;;;;;;;;4944610;28;20309;-78
2024/03/15 08:37:12;;;;;;;8.60;7.50;;;;;;;;;;4948637;28;20577;-79
2024/03/15 08:39:39;;;;;;;8.38;7.20;;;;;;;;;;4895194;29;20231;-79
2024/03/15 08:42:07;;;;;;;8.40;7.10;;;;;;;;;;4914113;28;20287;-79
2024/03/15 08:44:35;;;;;;;7.30;6.57;;;;;;;;;;4914952;29;20219;-79
2024/03/15 08:47:01;;;;;;;7.05;6.35;;;;;;;;;;4940690;28;20295;-80
2024/03/15 08:49:26;;;;;;;8.13;6.40;;;;;;;;;;4943765;28;20242;-79
2024/03/15 08:51:52;;;;;;;6.97;6.22;;;;;;;;;;4906379;29;20231;-77
2024/03/15 08:54:23;;;;;;;6.53;5.80;;;;;;;;;;4919600;28;20216;-79
2024/03/15 08:56:49;;;;;;;7.35;6.15;;;;;;;;;;4928575;29;20262;-78
2024/03/15 08:59:17;;;;;;;7.63;5.55;;;;;;;;;;4930545;28;20231;-78
2024/03/15 09:01:45;;;;;;;6.78;5.60;;;;;;;;;;4918392;28;20227;-77
2024/03/15 09:04:11;;;;;;;7.55;5.35;;;;;;;;;;4907738;28;20250;-79
2024/03/15 09:06:39;;;;;;;6.72;6.00;;;;;;;;;;4931135;28;20246;-78
2024/03/15 09:09:12;;;;;;;7.88;6.32;;;;;;;;;;4923442;28;20715;-76
2024/03/15 09:11:39;;;;;;;7.25;5.70;;;;;;;;;;4912417;29;20235;-77
2024/03/15 09:14:08;;;;;;;7.18;5.97;;;;;;;;;;4907956;28;20235;-79
2024/03/15 09:16:37;;;;;;;8.70;6.22;;;;;;;;;;4927565;28;20216;-78
2024/03/15 09:19:03;;;;;;;6.55;5.95;;;;;;;;;;4926326;29;20723;-77
2024/03/15 09:21:32;;;;;;;6.47;5.82;;;;;;;;;;4957759;28;20219;-77
2024/03/15 09:24:00;;;;;;;8.52;6.35;;;;;;;;;;4930973;28;20231;-79
2024/03/15 09:26:27;;;;;;;7.22;5.82;;;;;;;;;;4958000;28;20235;-77
2024/03/15 09:28:55;;;;;;;6.72;5.65;;;;;;;;;;4940351;28;20358;-78
2024/03/15 09:31:24;;;;;;;6.57;5.88;;;;;;;;;;4931665;28;20329;-77
2024/03/15 09:33:54;;;;;;;6.45;5.88;;;;;;;;;;4932880;28;20227;-77
2024/03/15 09:36:21;;;;;;;6.20;5.30;;;;;;;;;;4945632;28;20235;-78
2024/03/15 09:38:46;;;;;;;5.88;5.38;;;;;;;;;;4951900;28;20693;-79
2024/03/15 09:41:15;;;;;;;8.23;5.60;;;;;;;;;;4927349;28;20226;-79
2024/03/15 09:43:41;;;;;;;6.32;5.47;;;;;;;;;;4938683;28;20234;-79
2024/03/15 09:46:11;;;;;;;6.13;5.53;;;;;;;;;;4942654;28;20953;-78
2024/03/15 09:48:42;;;;;;;6.85;5.50;;;;;;;;;;4927801;28;20232;-78
2024/03/15 09:51:10;;;;;;;7.85;5.78;;;;;;;;;;4921429;28;20227;-77
2024/03/15 09:53:35;;;;;;;7.90;5.95;;;;;;;;;;4926549;29;20661;-77
2024/03/15 09:56:04;;;;;;;8.23;6.60;;;;;;;;;;4891978;29;20215;-77
2024/03/15 09:58:30;;;;;;;8.40;7.50;;;;;;;;;;4917146;29;20242;-78
2024/03/15 10:00:58;;;;;;;10.25;7.88;;;;;;;;;;4926806;29;20362;-78
2024/03/15 10:03:24;;;;;;;9.23;7.53;;;;;;;;;;4938865;28;20284;-78
2024/03/15 10:05:53;;;;;;;11.13;8.47;;;;;;;;;;4932839;28;20233;-77
2024/03/15 10:08:21;;;;;;;11.30;8.87;;;;;;;;;;4917974;28;20279;-78
2024/03/15 10:10:46;;;;;;;9.77;8.87;;;;;;;;;;4912118;29;20674;-76
2024/03/15 10:13:14;;;;;;;10.60;9.50;;;;;;;;;;4904744;29;20242;-77
2024/03/15 10:15:43;;;;;;;11.87;10.47;;;;;;;;;;4944991;28;20871;-78
2024/03/15 10:18:10;;;;;;;12.00;10.80;;;;;;;;;;4955305;28;20231;-79
2024/03/15 10:20:36;;;;;;;12.32;11.00;;;;;;;;;;4916615;29;20227;-78
2024/03/15 10:23:08;;;;;;;12.55;11.32;;;;;;;;;;4921581;29;20238;-77
2024/03/15 10:25:34;;;;;;;12.60;11.30;;;;;;;;;;4918055;29;20721;-78
2024/03/15 10:27:59;;;;;;;14.13;12.73;;;;;;;;;;4909223;29;20219;-78
2024/03/15 10:30:26;;;;;;;17.00;12.10;;;;;;;;;;4910606;28;20231;-78
2024/03/15 10:32:55;;;;;;;12.80;11.57;;;;;;;;;;4915189;29;20231;-78
2024/03/15 10:35:22;;;;;;;15.13;12.55;;;;;;;;;;4934033;28;20716;-78
2024/03/15 10:37:50;;;;;;;13.07;11.77;;;;;;;;;;4925756;29;20345;-77
2024/03/15 10:40:17;;;;;;;16.53;13.20;;;;;;;;;;4945946;28;20726;-79
2024/03/15 10:42:44;;;;;;;14.20;12.80;;;;;;;;;;4925530;29;20234;-78
2024/03/15 10:45:15;;;;;;;13.37;11.93;;;;;;;;;;4949887;28;20230;-78
2024/03/15 10:47:41;;;;;;;14.40;13.00;;;;;;;;;;4914278;28;20254;-78
2024/03/15 10:50:11;;;;;;;13.30;12.00;;;;;;;;;;4935101;28;20313;-79
2024/03/15 10:52:40;;;;;;;14.70;13.20;;;;;;;;;;4914359;29;20244;-78
2024/03/15 10:55:22;;;;;;;12.93;11.60;;;;;;;;;;4954401;28;20297;-78
2024/03/15 10:57:47;;;;;;;13.27;11.90;;;;;;;;;;4916561;29;20330;-80
2024/03/15 11:00:14;;;;;;;13.80;12.30;;;;;;;;;;4896591;28;21196;-78
2024/03/15 11:02:43;;;;;;;11.95;10.75;;;;;;;;;;4910101;29;20223;-78
2024/03/15 11:05:22;;;;;;;11.25;10.05;;;;;;;;;;4907833;28;20232;-78
2024/03/15 11:07:48;;;;;;;10.25;9.25;;;;;;;;;;4926020;29;20593;-77
2024/03/15 11:10:14;;;;;;;10.48;9.32;;;;;;;;;;4922876;28;20227;-79
2024/03/15 11:12:40;;;;;;;10.02;8.98;;;;;;;;;;4948772;28;20234;-81
2024/03/15 11:15:11;;;;;;;9.75;8.75;;;;;;;;;;4926579;28;20303;-79
2024/03/15 11:17:37;;;;;;;9.40;8.50;;;;;;;;;;4922058;29;20259;-79
2024/03/15 11:20:06;;;;;;;9.07;8.18;;;;;;;;;;4913513;29;20232;-78
2024/03/15 11:22:32;;;;;;;9.13;8.23;;;;;;;;;;4937760;28;20238;-78
2024/03/15 11:24:58;;;;;;;10.40;8.02;;;;;;;;;;4925563;29;20643;-79
2024/03/15 11:27:24;;;;;;;9.30;8.15;;;;;;;;;;4924252;29;20779;-78
2024/03/15 11:29:55;;;;;;;9.07;8.20;;;;;;;;;;4927595;29;20222;-79
2024/03/15 11:32:23;;;;;;;9.15;8.35;;;;;;;;;;4928688;28;20226;-78
2024/03/15 11:34:49;;;;;;;9.20;7.97;;;;;;;;;;4943506;28;20333;-78
2024/03/15 11:37:15;;;;;;;8.27;7.55;;;;;;;;;;4910064;28;20228;-79
2024/03/15 11:39:43;;;;;;;9.23;8.35;;;;;;;;;;4932220;28;20975;-79
2024/03/15 11:42:08;;;;;;;10.00;8.80;;;;;;;;;;4915764;28;20689;-79
2024/03/15 11:44:35;;;;;;;9.75;8.77;;;;;;;;;;4928194;28;20219;-80
2024/03/15 11:47:04;;;;;;;9.80;8.40;;;;;;;;;;4934236;28;20227;-79
2024/03/15 11:49:30;;;;;;;10.82;9.27;;;;;;;;;;4936687;28;20235;-79
2024/03/15 11:52:00;;;;;;;10.80;9.80;;;;;;;;;;4910535;29;20231;-79
2024/03/15 11:54:28;;;;;;;12.48;10.50;;;;;;;;;;4926811;28;20234;-78
2024/03/15 11:57:01;;;;;;;12.10;11.00;;;;;;;;;;4934021;29;20541;-78
2024/03/15 11:59:26;;;;;;;13.15;11.00;;;;;;;;;;4926082;28;20215;-79
2024/03/15 12:01:57;;;;;;;12.65;10.73;;;;;;;;;;4942867;28;20242;-78
2024/03/15 12:04:32;;;;;;;11.50;10.32;;;;;;;;;;4929614;28;20323;-79
2024/03/15 12:06:57;;;;;;;11.15;10.15;;;;;;;;;;4927561;29;20272;-78
2024/03/15 12:09:26;;;;;;;10.73;9.73;;;;;;;;;;4932280;28;20239;-79
2024/03/15 12:11:54;;;;;;;11.15;9.98;;;;;;;;;;4926573;28;20947;-78
2024/03/15 12:14:24;;;;;;;11.00;9.98;;;;;;;;;;4945644;28;20291;-79
2024/03/15 12:16:50;;;;;;;10.27;9.27;;;;;;;;;;4924912;29;20637;-80
2024/03/15 12:19:15;;;;;;;9.98;9.07;;;;;;;;;;4940594;28;20250;-79
2024/03/15 12:21:45;;;;;;;10.07;9.10;;;;;;;;;;4942579;29;20219;-79
2024/03/15 12:24:11;;;;;;;10.27;9.30;;;;;;;;;;4943496;28;20314;-78
2024/03/15 12:26:39;;;;;;;10.27;9.25;;;;;;;;;;4899320;29;20231;-79
2024/03/15 12:29:09;;;;;;;10.10;8.98;;;;;;;;;;4937271;29;20302;-78
2024/03/15 12:31:40;;;;;;;9.30;8.43;;;;;;;;;;4926186;29;20642;-77
2024/03/15 12:34:07;;;;;;;8.98;8.15;;;;;;;;;;4942712;28;20224;-78
2024/03/15 12:36:34;;;;;;;9.23;7.90;;;;;;;;;;4921968;28;20235;-80
2024/03/15 12:38:59;;;;;;;9.07;8.32;;;;;;;;;;4926734;29;20236;-79
2024/03/15 12:41:27;;;;;;;8.48;7.75;;;;;;;;;;4903196;29;20722;-79
2024/03/15 12:43:52;;;;;;;8.80;7.82;;;;;;;;;;4952204;28;20223;-79
2024/03/15 12:46:19;;;;;;;9.48;8.57;;;;;;;;;;4927730;28;20227;-78
2024/03/15 12:48:47;;;;;;;8.82;8.02;;;;;;;;;;4930422;28;20278;-79
2024/03/15 12:51:14;;;;;;;9.45;8.65;;;;;;;;;;4926524;28;20374;-78
2024/03/15 12:53:40;;;;;;;10.13;9.13;;;;;;;;;;4922183;29;20247;-79
2024/03/15 12:56:08;;;;;;;10.50;9.50;;;;;;;;;;4908590;28;20216;-89
2024/03/15 12:58:36;;;;;;;10.18;9.07;;;;;;;;;;4918655;29;20228;-87
2024/03/15 13:01:02;;;;;;;9.77;8.88;;;;;;;;;;4938829;29;20255;-86
2024/03/15 13:03:27;;;;;;;9.65;8.75;;;;;;;;;;4934469;29;20227;-87
2024/03/15 13:05:53;;;;;;;9.90;8.95;;;;;;;;;;4941529;28;20230;-86
2024/03/15 13:08:21;;;;;;;10.18;9.20;;;;;;;;;;4941590;28;20286;-86
2024/03/15 13:10:46;;;;;;;10.15;9.15;;;;;;;;;;4926748;29;20225;-87
2024/03/15 13:13:12;;;;;;;9.98;9.13;;;;;;;;;;4925585;28;20222;-86
2024/03/15 13:15:46;;;;;;;9.10;8.20;;;;;;;;;;4912069;29;20402;-88
2024/03/15 13:18:14;;;;;;;9.45;8.35;;;;;;;;;;4926777;28;20232;-88
2024/03/15 13:20:42;;;;;;;8.13;7.43;;;;;;;;;;4929527;29;20224;-87
2024/03/15 13:23:12;;;;;;;7.93;7.15;;;;;;;;;;4924114;28;20291;-88
2024/03/15 13:25:38;;;;;;;7.28;6.57;;;;;;;;;;4951285;28;20254;-86
2024/03/15 13:28:06;;;;;;;7.28;6.57;;;;;;;;;;4902411;29;20212;-86
2024/03/15 13:30:32;;;;;;;7.15;6.50;;;;;;;;;;4922676;29;20223;-86
2024/03/15 13:33:00;;;;;;;6.85;6.15;;;;;;;;;;4938209;28;20233;-86
2024/03/15 13:35:25;;;;;;;6.50;5.88;;;;;;;;;;4943433;29;20301;-87
2024/03/15 13:37:52;;;;;;;6.32;5.70;;;;;;;;;;4939703;28;20930;-80
2024/03/15 13:40:22;;;;;;;6.38;5.65;;;;;;;;;;4939265;28;21088;-80
2024/03/15 13:42:48;;;;;;;6.38;5.47;;;;;;;;;;4890706;29;20235;-79
2024/03/15 13:45:15;;;;;;;5.93;5.43;;;;;;;;;;4936759;28;20216;-81
2024/03/15 13:47:41;;;;;;;5.85;5.35;;;;;;;;;;4924980;29;20627;-79
2024/03/15 13:50:15;;;;;;;6.80;5.35;;;;;;;;;;4922559;28;20224;-79
2024/03/15 13:52:47;;;;;;;6.63;5.30;;;;;;;;;;4935294;28;20257;-79
2024/03/15 13:55:13;;;;;;;5.72;5.15;;;;;;;;;;4956702;28;20227;-80
2024/03/15 13:57:41;;;;;;;6.07;5.47;;;;;;;;;;4916221;29;20254;-79
2024/03/15 14:00:31;;;;;;;6.85;5.05;;;;;;;;;;4934101;28;20303;-79
2024/03/15 14:03:03;;;;;;;5.45;4.70;;;;;;;;;;4917875;29;20227;-78
2024/03/15 14:05:35;;;;;;;5.50;4.93;;;;;;;;;;4940495;28;20235;-80
2024/03/15 14:08:09;;;;;;;5.30;4.20;;;;;;;;;;4925704;29;20322;-80
2024/03/15 14:10:34;;;;;;;4.47;3.97;;;;;;;;;;4940236;28;20302;-78
2024/03/15 14:13:01;;;;;;;5.97;3.88;;;;;;;;;;4936895;28;20215;-78
2024/03/15 14:15:27;;;;;;;4.00;3.60;;;;;;;;;;4895098;29;20227;-78
2024/03/15 14:17:55;;;;;;;4.18;3.53;;;;;;;;;;4937916;28;20235;-78
2024/03/15 14:20:20;;;;;;;4.20;3.60;;;;;;;;;;4920784;28;20567;-78
2024/03/15 14:22:49;;;;;;;5.03;3.97;;;;;;;;;;4907086;29;20227;-80
2024/03/15 14:25:17;;;;;;;4.50;3.80;;;;;;;;;;4928484;28;20230;-78
2024/03/15 14:27:44;;;;;;;5.75;3.85;;;;;;;;;;4935201;28;20281;-79
2024/03/15 14:30:10;;;;;;;5.05;4.10;;;;;;;;;;4918185;28;20258;-79
2024/03/15 14:32:36;;;;;;;4.45;3.92;;;;;;;;;;4910280;29;20251;-79
2024/03/15 14:35:09;;;;;;;4.88;4.18;;;;;;;;;;4922022;29;20301;-84